Time;durP1;ratioP1;P1;durP2;ratioP2;P2;SDS_P1;SDS_P2;PMS_P1;PMS_P2;Temp;Humidity;BMP_temperature;BMP_pressure;BME280_temperature;BME280_humidity;BME280_pressure;Samples;Min_cycle;Max_cycle;Signal;HPM_P1;HPM_P2
2021/09/29 00:01:51;;;;;;;9.18;4.50;;;;;;;;;;4347513;33;20423;-79
2021/09/29 00:04:31;;;;;;;7.80;4.47;;;;;;;;;;4334511;33;20159;-78
2021/09/29 00:06:56;;;;;;;8.45;4.72;;;;;;;;;;4347680;33;20477;-78
2021/09/29 00:09:25;;;;;;;6.12;4.05;;;;;;;;;;4333537;33;20163;-78
2021/09/29 00:11:50;;;;;;;9.32;4.40;;;;;;;;;;4333696;33;20151;-78
2021/09/29 00:14:15;;;;;;;8.60;4.50;;;;;;;;;;4332738;33;20603;-78
2021/09/29 00:16:50;;;;;;;9.30;4.43;;;;;;;;;;4333862;33;20572;-78
2021/09/29 00:19:18;;;;;;;8.88;4.25;;;;;;;;;;4333415;33;20228;-78
2021/09/29 00:21:55;;;;;;;10.18;4.50;;;;;;;;;;4333457;33;20222;-79
2021/09/29 00:24:41;;;;;;;10.50;4.90;;;;;;;;;;4331329;33;20691;-78
2021/09/29 00:27:06;;;;;;;10.23;5.28;;;;;;;;;;4346773;33;20164;-78
2021/09/29 00:29:31;;;;;;;8.93;4.78;;;;;;;;;;4333738;33;20581;-78
2021/09/29 00:32:04;;;;;;;11.52;4.72;;;;;;;;;;4347514;33;20201;-78
2021/09/29 00:34:33;;;;;;;12.43;5.40;;;;;;;;;;4333655;33;20185;-78
2021/09/29 00:36:58;;;;;;;9.82;5.15;;;;;;;;;;4333072;33;20199;-78
2021/09/29 00:39:36;;;;;;;10.80;5.28;;;;;;;;;;4333486;33;20163;-78
2021/09/29 00:42:01;;;;;;;9.73;5.18;;;;;;;;;;4333166;33;20214;-78
2021/09/29 00:44:27;;;;;;;8.05;5.07;;;;;;;;;;4333108;33;20189;-78
2021/09/29 00:46:59;;;;;;;10.98;5.32;;;;;;;;;;4333653;33;20470;-78
2021/09/29 00:49:25;;;;;;;11.10;5.70;;;;;;;;;;4333593;33;20206;-78
2021/09/29 00:51:51;;;;;;;7.87;4.90;;;;;;;;;;4346760;33;20139;-78
2021/09/29 00:54:36;;;;;;;9.43;5.78;;;;;;;;;;4333339;33;20212;-78
2021/09/29 00:57:01;;;;;;;11.15;5.80;;;;;;;;;;4333098;33;20168;-78
2021/09/29 00:59:27;;;;;;;12.90;6.47;;;;;;;;;;4333292;33;20461;-78
2021/09/29 01:01:55;;;;;;;13.68;6.25;;;;;;;;;;4333143;33;20164;-78
2021/09/29 01:04:24;;;;;;;9.48;6.00;;;;;;;;;;4332764;33;20559;-78
2021/09/29 01:07:14;;;;;;;11.35;5.53;;;;;;;;;;4332818;33;20254;-78
2021/09/29 01:09:51;;;;;;;12.70;6.07;;;;;;;;;;4331192;33;20175;-78
2021/09/29 01:12:38;;;;;;;10.68;6.45;;;;;;;;;;4333305;33;20225;-78
2021/09/29 01:15:13;;;;;;;10.07;6.00;;;;;;;;;;4333173;33;20226;-78
2021/09/29 01:17:51;;;;;;;;;;;;;;;;;;;;;
2021/09/29 01:20:24;;;;;;;13.20;6.43;;;;;;;;;;4346552;33;20131;-78
2021/09/29 01:22:50;;;;;;;10.38;6.32;;;;;;;;;;4332054;33;20179;-78
2021/09/29 01:25:31;;;;;;;11.43;5.93;;;;;;;;;;4346012;33;20139;-78
2021/09/29 01:28:01;;;;;;;14.18;6.50;;;;;;;;;;4332885;33;20570;-78
2021/09/29 01:30:31;;;;;;;12.07;5.62;;;;;;;;;;4346727;33;20151;-78
2021/09/29 01:33:18;;;;;;;10.60;6.00;;;;;;;;;;4333156;33;20179;-78
2021/09/29 01:35:43;;;;;;;11.10;6.12;;;;;;;;;;4345626;33;20257;-78
2021/09/29 01:38:14;;;;;;;10.93;5.80;;;;;;;;;;4345817;33;20506;-78
2021/09/29 01:40:48;;;;;;;10.90;6.32;;;;;;;;;;4346059;33;20135;-78
2021/09/29 01:43:13;;;;;;;16.02;5.62;;;;;;;;;;4346217;33;20150;-78
2021/09/29 01:45:48;;;;;;;14.75;6.20;;;;;;;;;;4345618;33;20135;-78
2021/09/29 01:48:20;;;;;;;16.67;6.43;;;;;;;;;;4332822;33;20554;-78
2021/09/29 01:50:55;;;;;;;12.60;6.22;;;;;;;;;;4332312;33;20233;-78
2021/09/29 01:53:22;;;;;;;11.68;5.75;;;;;;;;;;4332120;33;20186;-78
2021/09/29 01:55:52;;;;;;;9.43;5.30;;;;;;;;;;4332026;33;20660;-78
2021/09/29 01:58:20;;;;;;;11.63;6.15;;;;;;;;;;4332357;33;20501;-78
2021/09/29 02:00:47;;;;;;;10.75;5.72;;;;;;;;;;4332890;33;20666;-78
2021/09/29 02:03:22;;;;;;;13.02;6.43;;;;;;;;;;4332017;33;20151;-78
2021/09/29 02:05:49;;;;;;;11.40;5.97;;;;;;;;;;4332039;33;20236;-78
2021/09/29 02:08:15;;;;;;;13.32;6.15;;;;;;;;;;4345936;33;20232;-78
2021/09/29 02:11:09;;;;;;;12.27;6.30;;;;;;;;;;4332259;33;20183;-78
2021/09/29 02:14:02;;;;;;;14.23;6.50;;;;;;;;;;4343602;33;20159;-78
2021/09/29 02:16:37;;;;;;;10.15;6.07;;;;;;;;;;4345597;33;20139;-78
2021/09/29 02:19:16;;;;;;;;;;;;;;;;;;;;;
2021/09/29 02:21:42;;;;;;;10.98;5.68;;;;;;;;;;4343062;33;20159;-78
2021/09/29 02:24:10;;;;;;;10.35;5.47;;;;;;;;;;4345573;33;20143;-78
2021/09/29 02:26:35;;;;;;;14.55;5.70;;;;;;;;;;4345298;33;20604;-78
2021/09/29 02:29:16;;;;;;;12.63;5.70;;;;;;;;;;4346029;33;20135;-78
2021/09/29 02:37:54;;;;;;;9.57;5.32;;;;;;;;;;4272234;33;20642;-78
2021/09/29 02:40:19;;;;;;;10.23;5.00;;;;;;;;;;4261946;33;20168;-78
2021/09/29 02:42:44;;;;;;;11.55;5.03;;;;;;;;;;4261990;33;20296;-78
2021/09/29 02:45:27;;;;;;;10.30;5.62;;;;;;;;;;4287934;33;20156;-78
2021/09/29 02:47:53;;;;;;;9.30;5.30;;;;;;;;;;4336701;33;20159;-78
2021/09/29 02:50:27;;;;;;;9.82;5.25;;;;;;;;;;4336908;33;20246;-78
2021/09/29 02:52:58;;;;;;;9.55;4.65;;;;;;;;;;4336893;33;20204;-78
2021/09/29 02:55:44;;;;;;;11.52;5.22;;;;;;;;;;4349547;33;20136;-79
2021/09/29 02:58:22;;;;;;;;;;;;;;;;;;;;;
2021/09/29 03:00:51;;;;;;;9.48;4.68;;;;;;;;;;4349985;33;20483;-78
2021/09/29 03:03:26;;;;;;;;;;;;;;;;;;;;;
2021/09/29 03:05:52;;;;;;;10.90;5.53;;;;;;;;;;4349042;33;20182;-78
2021/09/29 03:08:18;;;;;;;11.63;4.97;;;;;;;;;;4351164;33;20170;-78
2021/09/29 03:10:47;;;;;;;10.48;5.00;;;;;;;;;;4336786;33;20215;-78
2021/09/29 03:13:13;;;;;;;10.80;4.57;;;;;;;;;;4338307;33;20226;-77
2021/09/29 03:15:38;;;;;;;10.50;4.50;;;;;;;;;;4350681;33;20179;-77
2021/09/29 03:18:04;;;;;;;9.35;4.12;;;;;;;;;;4349839;33;20257;-77
2021/09/29 03:20:30;;;;;;;8.30;4.00;;;;;;;;;;4348758;33;20144;-78
2021/09/29 03:23:05;;;;;;;11.40;3.58;;;;;;;;;;4348408;33;20128;-78
2021/09/29 03:25:30;;;;;;;8.20;4.57;;;;;;;;;;4348820;33;20222;-78
2021/09/29 03:27:55;;;;;;;6.82;4.00;;;;;;;;;;4335146;33;20148;-78
2021/09/29 03:30:39;;;;;;;9.13;4.07;;;;;;;;;;4348118;33;20170;-78
2021/09/29 03:33:07;;;;;;;8.30;4.32;;;;;;;;;;4348611;33;20197;-78
2021/09/29 03:35:33;;;;;;;11.90;5.12;;;;;;;;;;4334270;33;20154;-79
2021/09/29 03:38:06;;;;;;;9.02;4.90;;;;;;;;;;4347160;33;20127;-78
2021/09/29 03:40:31;;;;;;;9.77;4.68;;;;;;;;;;4348247;33;20124;-78
2021/09/29 03:42:57;;;;;;;11.02;4.85;;;;;;;;;;4348079;33;20135;-79
2021/09/29 03:45:25;;;;;;;9.73;4.75;;;;;;;;;;4347643;33;20132;-78
2021/09/29 03:47:53;;;;;;;10.52;4.80;;;;;;;;;;4348496;33;20190;-78
2021/09/29 03:50:28;;;;;;;8.40;4.45;;;;;;;;;;4347772;33;20175;-78
2021/09/29 03:52:53;;;;;;;11.50;5.15;;;;;;;;;;4348709;33;20159;-78
2021/09/29 03:55:21;;;;;;;9.48;4.80;;;;;;;;;;4348048;33;20136;-80
2021/09/29 04:00:38;;;;;;;12.37;5.72;;;;;;;;;;4348212;33;20229;-80
2021/09/29 04:03:14;;;;;;;;;;;;;;;;;;;;;
2021/09/29 04:05:48;;;;;;;9.82;5.53;;;;;;;;;;4348015;33;20151;-79
2021/09/29 04:08:14;;;;;;;14.70;5.40;;;;;;;;;;4334800;33;20159;-80
2021/09/29 04:10:47;;;;;;;11.88;6.28;;;;;;;;;;4333945;33;20210;-80
2021/09/29 04:13:23;;;;;;;13.45;6.00;;;;;;;;;;4333997;33;20213;-80
2021/09/29 04:15:49;;;;;;;13.35;5.90;;;;;;;;;;4347354;33;20245;-80
2021/09/29 04:18:14;;;;;;;11.38;5.35;;;;;;;;;;4347903;33;20135;-80
2021/09/29 04:21:13;;;;;;;15.02;6.50;;;;;;;;;;4347402;33;20467;-80
2021/09/29 04:23:40;;;;;;;12.75;5.62;;;;;;;;;;4344139;33;20217;-80
2021/09/29 04:26:07;;;;;;;11.63;5.72;;;;;;;;;;4348234;33;20219;-80
2021/09/29 04:28:33;;;;;;;13.15;5.47;;;;;;;;;;4333778;33;20162;-80
2021/09/29 04:30:59;;;;;;;11.00;5.45;;;;;;;;;;4333651;33;20466;-81
2021/09/29 04:33:24;;;;;;;9.25;5.18;;;;;;;;;;4333596;33;20266;-80
2021/09/29 04:35:53;;;;;;;13.70;5.62;;;;;;;;;;4347228;33;20147;-80
2021/09/29 04:38:18;;;;;;;14.75;5.62;;;;;;;;;;4333331;33;20221;-80
2021/09/29 04:40:44;;;;;;;14.38;5.72;;;;;;;;;;4333215;33;20171;-80
2021/09/29 04:43:21;;;;;;;11.85;5.68;;;;;;;;;;4333323;33;20167;-79
2021/09/29 04:45:50;;;;;;;13.40;5.90;;;;;;;;;;4346731;33;20151;-80
2021/09/29 04:48:30;;;;;;;13.07;5.75;;;;;;;;;;4333193;33;20193;-79
2021/09/29 04:54:08;;;;;;;12.32;6.22;;;;;;;;;;4347121;33;20189;-80
2021/09/29 04:56:34;;;;;;;13.05;6.57;;;;;;;;;;4332881;33;20166;-79
2021/09/29 04:58:59;;;;;;;11.57;6.00;;;;;;;;;;4346757;33;20139;-79
2021/09/29 05:01:28;;;;;;;15.95;7.57;;;;;;;;;;4346172;33;20143;-79
2021/09/29 05:03:53;;;;;;;12.88;7.12;;;;;;;;;;4346655;33;20203;-79
2021/09/29 05:06:19;;;;;;;13.35;6.07;;;;;;;;;;4347091;33;20206;-79
2021/09/29 05:08:53;;;;;;;11.48;6.43;;;;;;;;;;4332728;33;20190;-80
2021/09/29 05:11:19;;;;;;;9.23;5.53;;;;;;;;;;4333188;33;20194;-79
2021/09/29 05:13:47;;;;;;;10.35;6.12;;;;;;;;;;4332686;33;20186;-79
2021/09/29 05:16:19;;;;;;;13.10;5.72;;;;;;;;;;4332973;33;20217;-79
2021/09/29 05:18:51;;;;;;;10.88;5.82;;;;;;;;;;4333021;33;20217;-79
2021/09/29 05:21:16;;;;;;;12.95;6.40;;;;;;;;;;4346504;33;20162;-79
2021/09/29 05:23:47;;;;;;;14.23;5.40;;;;;;;;;;4332562;33;20183;-78
2021/09/29 05:26:16;;;;;;;15.38;6.40;;;;;;;;;;4346130;33;20178;-79
2021/09/29 05:28:41;;;;;;;12.15;5.20;;;;;;;;;;4346314;33;20162;-79
2021/09/29 05:31:07;;;;;;;9.45;4.78;;;;;;;;;;4345510;33;20513;-78
2021/09/29 05:33:35;;;;;;;8.15;4.90;;;;;;;;;;4346109;33;20166;-78
2021/09/29 05:36:01;;;;;;;11.77;5.30;;;;;;;;;;4346188;33;20165;-78
2021/09/29 05:38:28;;;;;;;12.60;5.32;;;;;;;;;;4345730;33;20476;-79
2021/09/29 05:40:56;;;;;;;9.65;4.82;;;;;;;;;;4345975;33;20136;-78
2021/09/29 05:43:21;;;;;;;11.45;5.37;;;;;;;;;;4332853;33;20190;-78
2021/09/29 05:45:51;;;;;;;15.43;4.80;;;;;;;;;;4345919;33;20473;-78
2021/09/29 05:48:20;;;;;;;10.35;4.40;;;;;;;;;;4345410;33;20505;-79
2021/09/29 05:50:45;;;;;;;8.50;4.10;;;;;;;;;;4346099;33;20182;-79
2021/09/29 05:53:11;;;;;;;7.70;4.18;;;;;;;;;;4346781;33;20135;-78
2021/09/29 05:55:36;;;;;;;10.32;3.90;;;;;;;;;;4345865;33;20131;-78
2021/09/29 05:58:01;;;;;;;10.35;3.37;;;;;;;;;;4345724;33;20181;-78
2021/09/29 06:00:27;;;;;;;7.87;3.08;;;;;;;;;;4332133;33;20164;-78
2021/09/29 06:02:52;;;;;;;5.40;2.80;;;;;;;;;;4332089;33;20247;-77
2021/09/29 06:05:18;;;;;;;7.07;4.78;;;;;;;;;;4345289;33;20213;-77
2021/09/29 06:07:43;;;;;;;5.80;2.60;;;;;;;;;;4345324;33;20260;-77
2021/09/29 06:10:09;;;;;;;5.70;2.55;;;;;;;;;;4345183;33;20159;-77
2021/09/29 06:12:34;;;;;;;8.60;2.70;;;;;;;;;;4344983;33;20178;-77
2021/09/29 06:15:00;;;;;;;8.18;2.72;;;;;;;;;;4331993;33;20190;-77
2021/09/29 06:17:36;;;;;;;9.93;2.55;;;;;;;;;;4345033;33;20521;-79
2021/09/29 06:20:01;;;;;;;12.13;2.83;;;;;;;;;;4345662;33;20139;-77
2021/09/29 06:22:27;;;;;;;10.65;3.12;;;;;;;;;;4332275;33;20160;-78
2021/09/29 06:24:52;;;;;;;8.00;2.85;;;;;;;;;;4345852;33;20198;-77
2021/09/29 06:27:17;;;;;;;8.57;2.87;;;;;;;;;;4332222;33;20198;-76
2021/09/29 06:29:43;;;;;;;9.27;2.80;;;;;;;;;;4345152;33;20267;-78
2021/09/29 06:32:08;;;;;;;5.82;2.62;;;;;;;;;;4345132;33;20175;-78
2021/09/29 06:34:34;;;;;;;5.43;2.70;;;;;;;;;;4345911;33;20185;-78
2021/09/29 06:36:59;;;;;;;6.55;2.67;;;;;;;;;;4345663;33;20161;-77
2021/09/29 06:39:25;;;;;;;9.43;3.30;;;;;;;;;;4345393;33;20139;-78
2021/09/29 06:41:50;;;;;;;8.95;3.53;;;;;;;;;;4345182;33;20151;-78
2021/09/29 06:44:16;;;;;;;5.57;3.60;;;;;;;;;;4344865;33;20508;-78
2021/09/29 06:46:41;;;;;;;6.15;3.28;;;;;;;;;;4331344;33;20162;-78
2021/09/29 06:49:07;;;;;;;6.10;3.40;;;;;;;;;;4345238;33;20497;-78
2021/09/29 06:51:32;;;;;;;5.10;2.87;;;;;;;;;;4345341;33;20135;-79
2021/09/29 06:53:57;;;;;;;7.65;3.50;;;;;;;;;;4344927;33;20217;-80
2021/09/29 06:56:23;;;;;;;7.30;2.95;;;;;;;;;;4332493;33;20210;-78
2021/09/29 06:58:51;;;;;;;6.30;3.47;;;;;;;;;;4345250;33;20193;-79
2021/09/29 07:01:17;;;;;;;7.78;2.70;;;;;;;;;;4345409;33;20166;-79
2021/09/29 07:03:43;;;;;;;7.45;3.35;;;;;;;;;;4327201;33;20563;-79
2021/09/29 07:06:09;;;;;;;9.85;4.10;;;;;;;;;;4338855;33;20205;-79
2021/09/29 07:08:34;;;;;;;4.75;2.20;;;;;;;;;;4324140;33;20250;-78
2021/09/29 07:10:59;;;;;;;4.15;2.10;;;;;;;;;;4344951;33;20179;-79
2021/09/29 07:13:25;;;;;;;6.30;2.10;;;;;;;;;;4343037;33;20218;-81
2021/09/29 07:15:50;;;;;;;7.97;2.70;;;;;;;;;;4331401;33;20190;-79
2021/09/29 07:18:17;;;;;;;7.22;2.95;;;;;;;;;;4331282;33;20167;-80
2021/09/29 07:20:42;;;;;;;5.00;2.42;;;;;;;;;;4325577;33;20183;-79
2021/09/29 07:23:08;;;;;;;4.20;2.03;;;;;;;;;;4328716;33;20671;-80
2021/09/29 07:25:34;;;;;;;3.60;1.87;;;;;;;;;;4325249;33;20206;-80
2021/09/29 07:28:00;;;;;;;5.22;1.77;;;;;;;;;;4326405;33;20248;-80
2021/09/29 07:30:25;;;;;;;4.60;1.83;;;;;;;;;;4333057;33;20597;-78
2021/09/29 07:32:55;;;;;;;5.30;2.00;;;;;;;;;;4325494;33;20459;-79
2021/09/29 07:35:20;;;;;;;5.47;2.20;;;;;;;;;;4326600;33;20189;-79
2021/09/29 07:37:46;;;;;;;4.05;2.08;;;;;;;;;;4314245;33;20175;-78
2021/09/29 07:40:12;;;;;;;5.85;2.58;;;;;;;;;;4327659;33;20210;-80
2021/09/29 07:42:38;;;;;;;5.70;1.87;;;;;;;;;;4324083;33;20163;-80
2021/09/29 07:45:04;;;;;;;7.75;2.20;;;;;;;;;;4326738;33;20179;-79
2021/09/29 07:47:30;;;;;;;4.80;2.50;;;;;;;;;;4319377;33;20179;-77
2021/09/29 07:49:56;;;;;;;5.65;2.35;;;;;;;;;;4318938;33;20617;-78
2021/09/29 07:52:21;;;;;;;5.85;2.75;;;;;;;;;;4319007;33;20190;-78
2021/09/29 07:54:46;;;;;;;6.53;2.55;;;;;;;;;;4318836;33;20171;-78
2021/09/29 07:57:11;;;;;;;5.43;2.80;;;;;;;;;;4318819;33;20598;-79
2021/09/29 07:59:37;;;;;;;9.32;2.70;;;;;;;;;;4319284;33;20696;-78
2021/09/29 08:02:02;;;;;;;4.93;2.95;;;;;;;;;;4318855;33;20190;-77
2021/09/29 08:04:27;;;;;;;6.57;3.60;;;;;;;;;;4319258;33;20524;-78
2021/09/29 08:06:53;;;;;;;7.50;4.10;;;;;;;;;;4318548;33;20553;-78
2021/09/29 08:09:18;;;;;;;4.20;2.55;;;;;;;;;;4318389;33;20220;-78
2021/09/29 08:11:44;;;;;;;6.25;2.87;;;;;;;;;;4333990;33;20497;-78
2021/09/29 08:14:09;;;;;;;7.45;2.65;;;;;;;;;;4333519;33;20214;-77
2021/09/29 08:16:34;;;;;;;6.82;2.83;;;;;;;;;;4333271;33;20159;-78
2021/09/29 08:19:00;;;;;;;6.57;2.37;;;;;;;;;;4334448;33;20171;-77
2021/09/29 08:21:31;;;;;;;5.53;2.75;;;;;;;;;;4333413;33;20198;-79
2021/09/29 08:24:05;;;;;;;4.90;2.33;;;;;;;;;;4333496;33;20160;-78
2021/09/29 08:34:57;;;;;;;6.00;3.17;;;;;;;;;;4346331;33;20572;-78
2021/09/29 08:38:12;;;;;;;6.85;2.08;;;;;;;;;;4332457;33;20262;-78
2021/09/29 08:48:45;;;;;;;7.00;1.40;;;;;;;;;;4346764;33;20206;-78
2021/09/29 08:53:52;;;;;;;4.40;1.75;;;;;;;;;;4346509;33;20186;-78
2021/09/29 09:16:30;;;;;;;2.83;2.05;;;;;;;;;;4346013;33;20193;-77
2021/09/29 09:18:33;;;;;;;4.18;2.08;;;;;;;;;;4341763;33;20512;-77
2021/09/29 09:21:03;;;;;;;6.90;2.05;;;;;;;;;;4332211;33;20160;-78
2021/09/29 09:23:36;;;;;;;4.65;2.10;;;;;;;;;;4346378;33;20174;-78
2021/09/29 09:26:31;;;;;;;8.43;3.40;;;;;;;;;;4332603;33;20191;-79
2021/09/29 09:29:09;;;;;;;9.45;3.65;;;;;;;;;;4316834;33;20189;-78
2021/09/29 09:31:45;;;;;;;10.90;4.90;;;;;;;;;;4332337;33;20234;-78
2021/09/29 09:34:13;;;;;;;7.22;3.10;;;;;;;;;;4332338;33;20162;-77
2021/09/29 09:36:38;;;;;;;6.75;2.20;;;;;;;;;;4346247;33;20538;-78
2021/09/29 09:39:09;;;;;;;6.68;2.53;;;;;;;;;;4332311;33;20632;-78
2021/09/29 09:41:52;;;;;;;11.75;2.70;;;;;;;;;;4332090;33;20194;-79
2021/09/29 09:44:37;;;;;;;5.45;1.92;;;;;;;;;;4329554;33;20608;-77
2021/09/29 09:47:08;;;;;;;9.02;2.50;;;;;;;;;;4320352;33;20222;-76
2021/09/29 09:49:48;;;;;;;6.37;2.62;;;;;;;;;;4332113;33;20175;-76
2021/09/29 09:52:13;;;;;;;6.32;2.53;;;;;;;;;;4333533;33;20144;-77
2021/09/29 09:54:40;;;;;;;3.30;1.90;;;;;;;;;;4326327;33;20187;-76
2021/09/29 09:57:29;;;;;;;5.53;1.73;;;;;;;;;;4331755;33;20167;-77
2021/09/29 09:59:54;;;;;;;4.20;2.00;;;;;;;;;;4327150;33;20534;-77
2021/09/29 10:02:20;;;;;;;3.22;1.65;;;;;;;;;;4316531;33;20156;-78
2021/09/29 10:04:46;;;;;;;3.08;1.83;;;;;;;;;;4317367;33;20157;-78
2021/09/29 10:07:12;;;;;;;4.50;1.80;;;;;;;;;;4317646;33;20160;-78
2021/09/29 10:09:51;;;;;;;8.20;2.12;;;;;;;;;;4305206;33;20167;-78
2021/09/29 10:12:24;;;;;;;4.22;2.33;;;;;;;;;;4317836;33;20156;-76
2021/09/29 10:28:18;;;;;;;10.05;4.10;;;;;;;;;;4301242;33;20175;-77
2021/09/29 10:31:11;;;;;;;6.00;3.62;;;;;;;;;;4288651;33;20160;-77
2021/09/29 10:33:44;;;;;;;7.37;3.30;;;;;;;;;;4287806;33;20228;-77
2021/09/29 10:41:49;;;;;;;6.75;2.60;;;;;;;;;;4301462;33;20578;-77
2021/09/29 10:44:23;;;;;;;5.07;2.17;;;;;;;;;;4288142;33;20152;-76
2021/09/29 10:46:55;;;;;;;7.07;2.28;;;;;;;;;;4299912;33;20549;-78
2021/09/29 10:50:02;;;;;;;5.12;2.40;;;;;;;;;;4288008;33;20591;-78
2021/09/29 11:37:09;;;;;;;;;;;;;;;;;;;;;
2021/09/29 12:12:37;;;;;;;6.22;1.02;;;;;;;;;;4291842;33;20549;-76
2021/09/29 12:15:23;;;;;;;4.10;0.80;;;;;;;;;;4311939;33;20628;-77
2021/09/29 12:17:59;;;;;;;7.25;0.93;;;;;;;;;;4305075;33;20176;-78
2021/09/29 12:20:27;;;;;;;7.43;0.80;;;;;;;;;;4304010;33;20186;-77
2021/09/29 12:22:56;;;;;;;7.05;1.00;;;;;;;;;;4317075;33;20136;-76
2021/09/29 12:25:47;;;;;;;3.47;0.77;;;;;;;;;;4317172;33;20198;-79
2021/09/29 12:33:56;;;;;;;5.90;1.08;;;;;;;;;;4303174;33;20167;-78
2021/09/29 12:36:28;;;;;;;7.95;1.30;;;;;;;;;;4289330;33;20175;-79
2021/09/29 12:39:02;;;;;;;3.67;0.70;;;;;;;;;;4301210;33;20239;-78
2021/09/29 12:41:30;;;;;;;4.47;1.20;;;;;;;;;;4302043;33;20129;-75
2021/09/29 12:44:08;;;;;;;3.22;0.80;;;;;;;;;;4302549;33;20179;-78
2021/09/29 12:46:35;;;;;;;5.03;0.73;;;;;;;;;;4288993;33;20610;-79
2021/09/29 12:49:08;;;;;;;6.57;1.00;;;;;;;;;;4303078;33;20164;-80
2021/09/29 12:51:39;;;;;;;5.32;1.42;;;;;;;;;;4289669;33;20616;-74
2021/09/29 12:54:07;;;;;;;5.28;1.40;;;;;;;;;;4301735;33;20167;-78
2021/09/29 12:56:38;;;;;;;2.92;0.80;;;;;;;;;;4301085;33;20161;-77
2021/09/29 12:59:03;;;;;;;3.80;0.93;;;;;;;;;;4288641;33;20464;-79
2021/09/29 13:01:48;;;;;;;;;;;;;;;;;;;;;
2021/09/29 13:04:19;;;;;;;8.70;0.80;;;;;;;;;;4301958;33;20136;-78
2021/09/29 13:06:44;;;;;;;5.57;0.90;;;;;;;;;;4303334;33;20171;-77
2021/09/29 13:09:10;;;;;;;3.35;0.98;;;;;;;;;;4302076;33;20133;-78
2021/09/29 13:11:35;;;;;;;7.85;1.25;;;;;;;;;;4302939;33;20152;-77
2021/09/29 13:14:00;;;;;;;7.07;1.00;;;;;;;;;;4289138;33;20159;-78
2021/09/29 13:16:26;;;;;;;4.25;1.10;;;;;;;;;;4288685;33;20247;-77
2021/09/29 13:18:59;;;;;;;12.43;1.27;;;;;;;;;;4301885;33;20133;-78
2021/09/29 13:23:57;;;;;;;3.50;0.93;;;;;;;;;;4301951;33;20163;-76
2021/09/29 13:35:26;;;;;;;;;;;;;;;;;;;;;
2021/09/29 13:37:57;;;;;;;5.47;0.82;;;;;;;;;;4295169;33;20152;-77
2021/09/29 13:40:23;;;;;;;4.32;0.95;;;;;;;;;;4295219;33;20176;-76
2021/09/29 13:42:48;;;;;;;7.72;1.20;;;;;;;;;;4299138;33;20292;-76
2021/09/29 13:45:13;;;;;;;5.28;1.35;;;;;;;;;;4301003;33;20152;-77
2021/09/29 13:48:13;;;;;;;2.80;0.85;;;;;;;;;;4288331;33;20235;-77
2021/09/29 13:50:39;;;;;;;5.50;0.80;;;;;;;;;;4288741;33;20235;-77
2021/09/29 13:53:10;;;;;;;11.23;1.30;;;;;;;;;;4301456;33;20136;-77
2021/09/29 13:55:35;;;;;;;5.32;0.90;;;;;;;;;;4300189;33;20136;-77
2021/09/29 14:30:48;;;;;;;4.05;0.93;;;;;;;;;;4301400;33;20154;-78
2021/09/29 14:33:25;;;;;;;6.25;0.93;;;;;;;;;;4287730;33;20157;-79
2021/09/29 14:35:50;;;;;;;2.22;0.90;;;;;;;;;;4285852;33;20519;-78
2021/09/29 14:38:16;;;;;;;3.17;0.70;;;;;;;;;;4287455;33;20223;-78
2021/09/29 14:40:41;;;;;;;5.05;0.90;;;;;;;;;;4288178;33;20183;-79
2021/09/29 14:43:06;;;;;;;7.07;0.90;;;;;;;;;;4301790;33;20133;-78
2021/09/29 14:45:41;;;;;;;3.05;0.73;;;;;;;;;;4288397;33;20214;-78
2021/09/29 14:48:06;;;;;;;4.20;0.93;;;;;;;;;;4288461;33;20164;-79
2021/09/29 14:50:31;;;;;;;2.90;0.77;;;;;;;;;;4287396;33;20505;-77
2021/09/29 14:53:01;;;;;;;2.58;0.80;;;;;;;;;;4287363;33;20629;-77
2021/09/29 14:55:29;;;;;;;3.60;1.30;;;;;;;;;;4287483;33;20152;-78
2021/09/29 14:57:54;;;;;;;2.92;0.80;;;;;;;;;;4287817;33;20153;-78
2021/09/29 15:00:20;;;;;;;4.07;0.60;;;;;;;;;;4288066;33;20164;-78
2021/09/29 15:02:45;;;;;;;3.45;0.80;;;;;;;;;;4287803;33;20215;-78
2021/09/29 15:05:10;;;;;;;5.03;0.60;;;;;;;;;;4287880;33;20283;-77
2021/09/29 15:07:36;;;;;;;2.30;0.60;;;;;;;;;;4301442;33;20447;-77
2021/09/29 15:10:01;;;;;;;2.83;0.68;;;;;;;;;;4300837;33;20152;-77
2021/09/29 15:12:36;;;;;;;4.45;0.98;;;;;;;;;;4287758;33;20629;-77
2021/09/29 15:17:48;;;;;;;1.15;0.50;;;;;;;;;;4301496;33;20136;-78
2021/09/29 15:31:14;;;;;;;3.78;0.90;;;;;;;;;;4301499;33;20196;-79
2021/09/29 15:47:33;;;;;;;4.53;0.85;;;;;;;;;;4303756;33;20488;-79
2021/09/29 15:50:08;;;;;;;7.65;1.08;;;;;;;;;;4290784;33;20629;-79
2021/09/29 16:02:55;;;;;;;4.30;1.00;;;;;;;;;;4295719;33;20203;-78
2021/09/29 16:36:09;;;;;;;3.72;1.00;;;;;;;;;;4303558;33;20136;-79
2021/09/29 16:38:45;;;;;;;3.40;0.90;;;;;;;;;;4289820;33;20269;-79
2021/09/29 16:41:20;;;;;;;3.80;1.00;;;;;;;;;;4289861;33;20166;-78
2021/09/29 16:43:46;;;;;;;1.75;0.93;;;;;;;;;;4303115;33;20199;-77
2021/09/29 16:46:14;;;;;;;5.10;1.00;;;;;;;;;;4303116;33;20207;-77
2021/09/29 16:48:40;;;;;;;4.97;0.90;;;;;;;;;;4288373;33;20622;-78
2021/09/29 16:51:25;;;;;;;2.25;0.80;;;;;;;;;;4289678;33;20194;-78
2021/09/29 16:53:55;;;;;;;5.70;1.58;;;;;;;;;;4302063;33;20137;-78
2021/09/29 17:01:58;;;;;;;5.57;1.10;;;;;;;;;;4272343;33;20171;-79
2021/09/29 17:04:24;;;;;;;7.22;1.20;;;;;;;;;;4300640;33;20227;-75
2021/09/29 17:06:56;;;;;;;4.55;1.20;;;;;;;;;;4289814;33;20183;-77
2021/09/29 17:09:22;;;;;;;3.65;1.27;;;;;;;;;;4289708;33;20164;-78
2021/09/29 17:11:53;;;;;;;6.32;1.00;;;;;;;;;;4302063;33;20225;-78
2021/09/29 17:14:27;;;;;;;4.18;1.52;;;;;;;;;;4285899;33;20268;-77
2021/09/29 17:16:52;;;;;;;3.08;1.00;;;;;;;;;;4280878;33;20219;-77
2021/09/29 17:19:24;;;;;;;3.00;0.90;;;;;;;;;;4282456;33;20289;-78
2021/09/29 17:22:14;;;;;;;5.82;1.10;;;;;;;;;;4284666;33;20200;-79
2021/09/29 17:24:41;;;;;;;4.75;1.15;;;;;;;;;;4288063;33;20226;-80
2021/09/29 17:27:11;;;;;;;4.05;0.80;;;;;;;;;;4299820;33;20471;-79
2021/09/29 17:29:37;;;;;;;3.05;0.80;;;;;;;;;;4288217;33;20165;-79
2021/09/29 17:32:08;;;;;;;5.18;1.10;;;;;;;;;;4286618;33;20160;-78
2021/09/29 17:37:27;;;;;;;6.10;1.25;;;;;;;;;;4300064;33;20215;-78
2021/09/29 17:54:08;;;;;;;6.30;2.40;;;;;;;;;;4301608;33;20164;-78
2021/09/29 17:56:36;;;;;;;4.43;1.17;;;;;;;;;;4288481;33;20248;-79
2021/09/29 18:01:57;;;;;;;6.28;1.40;;;;;;;;;;4296158;33;20208;-78
2021/09/29 18:04:32;;;;;;;8.35;1.52;;;;;;;;;;4288123;33;20156;-79
2021/09/29 18:09:28;;;;;;;7.60;1.30;;;;;;;;;;4293147;33;20620;-77
2021/09/29 18:12:03;;;;;;;7.82;1.60;;;;;;;;;;4287892;33;20161;-77
2021/09/29 18:14:30;;;;;;;7.25;1.42;;;;;;;;;;4282302;33;20331;-77
2021/09/29 18:16:55;;;;;;;6.82;1.30;;;;;;;;;;4301299;33;20207;-78
2021/09/29 18:19:21;;;;;;;8.68;1.37;;;;;;;;;;4288662;33;20160;-76
2021/09/29 18:21:47;;;;;;;6.00;1.50;;;;;;;;;;4288531;33;20227;-77
2021/09/29 18:24:12;;;;;;;2.97;1.17;;;;;;;;;;4287091;33;20244;-77
2021/09/29 18:26:40;;;;;;;5.15;1.27;;;;;;;;;;4286651;33;20159;-76
2021/09/29 18:29:06;;;;;;;4.12;1.00;;;;;;;;;;4301244;33;20187;-77
2021/09/29 18:31:35;;;;;;;4.93;1.10;;;;;;;;;;4288519;33;20479;-78
2021/09/29 18:34:16;;;;;;;3.87;0.82;;;;;;;;;;4287875;33;20638;-77
2021/09/29 18:36:43;;;;;;;5.30;1.23;;;;;;;;;;4288185;33;20345;-78
2021/09/29 18:39:24;;;;;;;6.03;1.25;;;;;;;;;;4287855;33;20159;-76
2021/09/29 18:41:53;;;;;;;5.43;1.15;;;;;;;;;;4287992;33;20191;-77
2021/09/29 18:44:19;;;;;;;4.93;1.15;;;;;;;;;;4288090;33;20157;-78
2021/09/29 18:46:44;;;;;;;6.15;1.20;;;;;;;;;;4287218;33;20238;-76
2021/09/29 18:49:17;;;;;;;5.15;1.25;;;;;;;;;;4287639;33;20247;-78
2021/09/29 18:51:45;;;;;;;4.62;1.30;;;;;;;;;;4288163;33;20206;-78
2021/09/29 18:54:35;;;;;;;8.68;1.10;;;;;;;;;;4286832;33;20169;-77
2021/09/29 19:08:01;;;;;;;;;;;;;;;;;;;;;
2021/09/29 19:10:31;;;;;;;7.55;1.23;;;;;;;;;;4297322;33;20183;-77
2021/09/29 19:12:59;;;;;;;5.20;1.20;;;;;;;;;;4288009;33;20149;-78
2021/09/29 19:15:25;;;;;;;5.47;1.10;;;;;;;;;;4287864;33;20223;-77
2021/09/29 19:17:53;;;;;;;6.15;1.02;;;;;;;;;;4287934;33;20149;-77
2021/09/29 19:20:19;;;;;;;4.70;0.80;;;;;;;;;;4289073;33;20152;-78
2021/09/29 19:22:44;;;;;;;3.47;0.90;;;;;;;;;;4290759;33;20168;-76
2021/09/29 19:25:10;;;;;;;3.78;0.80;;;;;;;;;;4303785;33;20190;-76
2021/09/29 19:27:41;;;;;;;5.28;0.90;;;;;;;;;;4290453;33;20182;-77
2021/09/29 19:30:15;;;;;;;1.48;0.50;;;;;;;;;;4288256;33;20211;-77
2021/09/29 19:32:48;;;;;;;4.43;1.25;;;;;;;;;;4289103;33;20160;-77
2021/09/29 19:35:16;;;;;;;4.82;1.10;;;;;;;;;;4289930;33;20149;-77
2021/09/29 19:38:02;;;;;;;;;;;;;;;;;;;;;
2021/09/29 19:40:29;;;;;;;2.95;0.75;;;;;;;;;;4300495;33;20697;-77
2021/09/29 19:43:02;;;;;;;1.58;0.68;;;;;;;;;;4290017;33;20157;-77
2021/09/29 19:45:27;;;;;;;3.25;0.77;;;;;;;;;;4290282;33;20617;-77
2021/09/29 19:48:02;;;;;;;3.80;0.60;;;;;;;;;;4290297;33;20165;-78
2021/09/29 20:08:26;;;;;;;3.10;0.95;;;;;;;;;;4303933;33;20167;-78
2021/09/29 20:11:26;;;;;;;3.62;1.23;;;;;;;;;;4246227;33;20173;-78
2021/09/29 20:14:11;;;;;;;;;;;;;;;;;;;;;
2021/09/29 20:16:39;;;;;;;2.83;1.00;;;;;;;;;;4253649;33;20196;-77
2021/09/29 20:19:33;;;;;;;;;;;;;;;;;;;;;
2021/09/29 20:22:12;;;;;;;2.30;0.95;;;;;;;;;;4252710;33;20216;-76
2021/09/29 20:24:58;;;;;;;2.97;1.05;;;;;;;;;;4259988;33;20188;-79
2021/09/29 20:30:19;;;;;;;3.95;1.08;;;;;;;;;;4257491;33;20170;-78
2021/09/29 20:32:56;;;;;;;3.17;0.95;;;;;;;;;;4282112;33;20247;-78
2021/09/29 20:35:54;;;;;;;5.07;1.10;;;;;;;;;;4289723;33;20151;-77